»·PEaware :: N49872 KCRQ-KCRQ

N49872 :: KCRQ-KCRQ

FLIGHT INFORMATION

Flight Status: Arrived
Operator: Privately registered:
United States
More flights under this callsign
Pilot: Kyle K. (13572)
Aircraft: BEECH AIRCRAFT BARON
(BE58)
More flights by this aircraft type
Origin: KCRQ McClellan-Palomar
United States
Destination: KCRQ McClellan-Palomar
United States
More flights between these airports :: More routes between these airports
Route: +OCN
File this flight plan on PilotEdge
Remarks:
Altitude:
(Current/Filed)
4,000ft
Speed:
(Current/Filed)
150kts
Departed: 17-Feb-17 09:49 AM
Arrived: 17-Feb-17 10:35 AM
Distance/Time
Traveled:
0nm/0:46
Distance/Time
To Go:
Arrived

Flight Plot

Page will automatically refresh every two minutes.


Map Options




Map Legend


Flown Route
Filed Route
Departure Airport
Arrival Airport
Navaid (VOR, NDB)
Fix

Horizontal Profiles

Position Reports

Time Latitude Longitude Heading Altitude Ground
Speed
17-Feb-17 09:29 33.123867 -117.282269 347 332ft 0kts
17-Feb-17 09:30 33.123867 -117.282269 347 332ft 0kts
17-Feb-17 09:31 33.123867 -117.282269 347 332ft 0kts
17-Feb-17 09:32 33.123867 -117.282269 347 332ft 0kts
17-Feb-17 09:33 33.123867 -117.282269 347 332ft 0kts
17-Feb-17 09:34 33.123867 -117.282269 347 332ft 0kts
17-Feb-17 09:35 33.123867 -117.282269 347 332ft 0kts
17-Feb-17 09:36 33.123867 -117.282269 347 332ft 0kts
17-Feb-17 09:37 33.123997 -117.282367 308 332ft 6kts
17-Feb-17 09:38 33.125471 -117.282953 348 332ft 0kts
17-Feb-17 09:39 33.126067 -117.283089 358 332ft 0kts
17-Feb-17 09:40 33.126067 -117.283089 358 332ft 0kts
17-Feb-17 09:41 33.126067 -117.283089 358 332ft 0kts
17-Feb-17 09:42 33.126067 -117.283089 358 332ft 0kts
17-Feb-17 09:43 33.126067 -117.283089 358 332ft 0kts
17-Feb-17 09:44 33.126067 -117.283089 358 332ft 0kts
17-Feb-17 09:45 33.126716 -117.283106 5 332ft 12kts
17-Feb-17 09:47 33.127932 -117.276919 78 332ft 25kts
17-Feb-17 09:48 33.128594 -117.273002 61 332ft 0kts
17-Feb-17 09:49 33.128788 -117.272647 51 332ft 12kts
17-Feb-17 09:50 33.127898 -117.281785 258 418ft 91kts
17-Feb-17 09:51 33.123418 -117.317176 261 1671ft 119kts
17-Feb-17 09:52 33.129430 -117.351965 336 3068ft 120kts
17-Feb-17 09:53 33.152124 -117.331872 72 4051ft 123kts
17-Feb-17 09:54 33.164413 -117.287237 71 4065ft 153kts
17-Feb-17 09:55 33.178655 -117.237286 71 3994ft 163kts
17-Feb-17 09:56 33.188376 -117.184597 80 4013ft 160kts
17-Feb-17 09:56 33.194486 -117.140646 80 4026ft 162kts
17-Feb-17 09:58 33.203055 -117.078138 81 3950ft 166kts
17-Feb-17 09:59 33.181217 -117.051159 205 3564ft 122kts
17-Feb-17 10:00 33.162765 -117.085826 258 3605ft 134kts
17-Feb-17 10:01 33.152180 -117.126568 258 2942ft 116kts
17-Feb-17 10:02 33.146477 -117.164771 261 2179ft 112kts
17-Feb-17 10:03 33.140391 -117.203564 260 1555ft 119kts
17-Feb-17 10:03 33.135147 -117.236369 260 1015ft 113kts
17-Feb-17 10:04 33.129074 -117.274476 260 776ft 121kts
17-Feb-17 10:05 33.121090 -117.315241 256 2220ft 128kts
17-Feb-17 10:07 33.110767 -117.364692 256 2731ft 137kts
17-Feb-17 10:08 33.123000 -117.392939 16 3324ft 104kts
17-Feb-17 10:09 33.145690 -117.364173 50 4110ft 136kts
17-Feb-17 10:10 33.165343 -117.324569 89 4780ft 138kts
17-Feb-17 10:10 33.159641 -117.286533 101 4968ft 145kts
17-Feb-17 10:12 33.149132 -117.229610 103 4969ft 154kts
17-Feb-17 10:12 33.141195 -117.186134 100 4965ft 167kts
17-Feb-17 10:13 33.128170 -117.132303 110 4949ft 169kts
17-Feb-17 10:14 33.111562 -117.080657 111 5046ft 164kts
17-Feb-17 10:15 33.094907 -117.029582 110 5032ft 164kts
17-Feb-17 10:16 33.079032 -116.979012 110 5018ft 162kts
17-Feb-17 10:17 33.062894 -116.929249 111 5035ft 161kts
17-Feb-17 10:18 33.046211 -116.879332 111 5005ft 161kts
17-Feb-17 10:19 33.029647 -116.829916 111 5022ft 160kts
17-Feb-17 10:20 33.019332 -116.779806 66 5023ft 160kts
17-Feb-17 10:21 33.049268 -116.772373 301 5070ft 116kts
17-Feb-17 10:22 33.054829 -116.813896 277 5105ft 130kts
17-Feb-17 10:23 33.063966 -116.854188 309 5200ft 122kts
17-Feb-17 10:24 33.087466 -116.886245 310 4705ft 128kts
17-Feb-17 10:25 33.110533 -116.918448 307 4559ft 125kts
17-Feb-17 10:26 33.133555 -116.949295 312 4401ft 125kts
17-Feb-17 10:27 33.156897 -116.980758 310 4352ft 122kts
17-Feb-17 10:28 33.166933 -117.016956 268 4260ft 117kts
17-Feb-17 10:29 33.163651 -117.056347 259 4115ft 114kts
17-Feb-17 10:30 33.157835 -117.095422 262 3470ft 123kts
17-Feb-17 10:31 33.151694 -117.134937 259 2936ft 129kts
17-Feb-17 10:32 33.145085 -117.175175 259 2015ft 122kts
17-Feb-17 10:33 33.138863 -117.214542 258 1341ft 117kts
17-Feb-17 10:34 33.132826 -117.251832 260 721ft 117kts
17-Feb-17 10:35 33.127925 -117.281846 252 332ft 23kts
17-Feb-17 10:36 33.127144 -117.282589 138 332ft 0kts
17-Feb-17 10:37 33.126962 -117.283005 255 332ft 13kts
17-Feb-17 10:38 33.125031 -117.282893 160 332ft 9kts
17-Feb-17 10:39 33.124142 -117.282500 336 332ft 0kts

Navigation Log

Ident Type
1. KCRQ Airport
2. OCN Navaid
3. KCRQ Airport